SCCI

Punta Arenas/ Presidente Carlos Ibáñez del Campo International Airport

Airport
ICAO code
SCCI
IATA Code
PUQ
Summary
ICAO Region
CARSAM
ICAO Territory
Location

Punta Arenas, Magallanes y Antártica Chilena

Serving
Punta Arenas
Elevation
139 ft
Coordinates
53° 0' 12" S , 70° 51' 12" W
KCC
BSk
Metar
Observation
SCCI 131500Z 06015G25KT 040V120 9999 SCT030 BKN080 03/M04 Q0986 NOSIG
Station
Punta Arenas
Date/Time
2022-08-13 15:00:00
Wind direction
60°
Wind speed
15 kts
Lowest cloud amount
scattered clouds
Temperature
3°C
Dew point
-4°C
Humidity
60%
QNH
986 hPa
Weather condition
n/a

Description

International airport serving Punta Arenas.

Climatology

Cold Semi-arid climate (Köppen climate classification BSk)

Runways

Designator Length Width Surface Rops
1/19 1678 45 ASP No/No
12/30 2400 45 ASP No/No
7/25 2790 45 ASP No/No

Airport map

Aerial View

SKYbrary Partners:

Safety knowledge contributed by: